sensor_id;sensor_type;location;lat;lon;timestamp;P1;durP1;ratioP1;P2;durP2;ratioP2
5349;SDS011;2697;42.144;24.794;2023-05-19T00:00:34;6.10;;;2.90;;
5349;SDS011;2697;42.144;24.794;2023-05-19T00:03:01;2.87;;;1.93;;
5349;SDS011;2697;42.144;24.794;2023-05-19T00:05:27;3.07;;;1.97;;
5349;SDS011;2697;42.144;24.794;2023-05-19T00:07:55;3.33;;;2.13;;
5349;SDS011;2697;42.144;24.794;2023-05-19T00:10:23;2.30;;;1.60;;
5349;SDS011;2697;42.144;24.794;2023-05-19T00:12:49;5.10;;;1.80;;
5349;SDS011;2697;42.144;24.794;2023-05-19T00:15:15;5.23;;;2.70;;
5349;SDS011;2697;42.144;24.794;2023-05-19T00:17:40;9.83;;;2.20;;
5349;SDS011;2697;42.144;24.794;2023-05-19T00:20:06;5.60;;;2.40;;
5349;SDS011;2697;42.144;24.794;2023-05-19T00:22:32;3.37;;;2.03;;
5349;SDS011;2697;42.144;24.794;2023-05-19T00:24:58;5.53;;;2.27;;
5349;SDS011;2697;42.144;24.794;2023-05-19T00:27:23;7.77;;;2.47;;
5349;SDS011;2697;42.144;24.794;2023-05-19T00:29:49;1.80;;;1.70;;
5349;SDS011;2697;42.144;24.794;2023-05-19T00:32:14;7.93;;;2.43;;
5349;SDS011;2697;42.144;24.794;2023-05-19T00:34:39;5.40;;;2.13;;
5349;SDS011;2697;42.144;24.794;2023-05-19T00:37:05;4.00;;;2.20;;
5349;SDS011;2697;42.144;24.794;2023-05-19T00:39:30;7.23;;;1.90;;
5349;SDS011;2697;42.144;24.794;2023-05-19T00:41:56;2.47;;;1.87;;
5349;SDS011;2697;42.144;24.794;2023-05-19T00:44:21;2.33;;;1.40;;
5349;SDS011;2697;42.144;24.794;2023-05-19T00:46:46;2.10;;;1.90;;
5349;SDS011;2697;42.144;24.794;2023-05-19T00:49:12;6.93;;;2.60;;
5349;SDS011;2697;42.144;24.794;2023-05-19T00:51:37;3.60;;;1.90;;
5349;SDS011;2697;42.144;24.794;2023-05-19T00:54:04;5.57;;;1.90;;
5349;SDS011;2697;42.144;24.794;2023-05-19T00:56:30;6.53;;;2.67;;
5349;SDS011;2697;42.144;24.794;2023-05-19T00:58:56;1.70;;;1.60;;
5349;SDS011;2697;42.144;24.794;2023-05-19T01:01:22;6.00;;;2.30;;
5349;SDS011;2697;42.144;24.794;2023-05-19T01:03:50;3.97;;;2.43;;
5349;SDS011;2697;42.144;24.794;2023-05-19T01:06:16;4.80;;;2.50;;
5349;SDS011;2697;42.144;24.794;2023-05-19T01:08:43;4.80;;;2.03;;
5349;SDS011;2697;42.144;24.794;2023-05-19T01:11:08;4.10;;;3.00;;
5349;SDS011;2697;42.144;24.794;2023-05-19T01:13:35;11.20;;;2.50;;
5349;SDS011;2697;42.144;24.794;2023-05-19T01:16:17;3.83;;;2.37;;
5349;SDS011;2697;42.144;24.794;2023-05-19T01:24:23;3.20;;;2.00;;
5349;SDS011;2697;42.144;24.794;2023-05-19T01:30:07;12.33;;;2.17;;
5349;SDS011;2697;42.144;24.794;2023-05-19T01:32:53;3.57;;;2.57;;
5349;SDS011;2697;42.144;24.794;2023-05-19T01:35:22;4.00;;;2.60;;
5349;SDS011;2697;42.144;24.794;2023-05-19T01:37:51;10.33;;;2.83;;
5349;SDS011;2697;42.144;24.794;2023-05-19T01:40:20;4.20;;;2.30;;
5349;SDS011;2697;42.144;24.794;2023-05-19T01:42:46;2.93;;;1.83;;
5349;SDS011;2697;42.144;24.794;2023-05-19T01:45:14;2.53;;;2.20;;
5349;SDS011;2697;42.144;24.794;2023-05-19T01:47:42;3.80;;;2.00;;
5349;SDS011;2697;42.144;24.794;2023-05-19T01:50:10;3.60;;;2.57;;
5349;SDS011;2697;42.144;24.794;2023-05-19T01:52:35;4.93;;;2.03;;
5349;SDS011;2697;42.144;24.794;2023-05-19T01:55:01;7.60;;;2.10;;
5349;SDS011;2697;42.144;24.794;2023-05-19T01:57:32;5.97;;;2.60;;
5349;SDS011;2697;42.144;24.794;2023-05-19T02:03:00;3.50;;;1.60;;
5349;SDS011;2697;42.144;24.794;2023-05-19T02:05:30;7.17;;;2.27;;
5349;SDS011;2697;42.144;24.794;2023-05-19T02:08:10;11.33;;;2.53;;
5349;SDS011;2697;42.144;24.794;2023-05-19T02:10:39;2.27;;;2.07;;
5349;SDS011;2697;42.144;24.794;2023-05-19T02:13:10;4.17;;;2.43;;
5349;SDS011;2697;42.144;24.794;2023-05-19T02:15:39;4.53;;;2.33;;
5349;SDS011;2697;42.144;24.794;2023-05-19T02:18:07;5.83;;;2.33;;
5349;SDS011;2697;42.144;24.794;2023-05-19T02:20:35;4.73;;;2.63;;
5349;SDS011;2697;42.144;24.794;2023-05-19T02:23:02;6.03;;;1.90;;
5349;SDS011;2697;42.144;24.794;2023-05-19T02:25:28;2.63;;;2.40;;
5349;SDS011;2697;42.144;24.794;2023-05-19T02:27:53;2.80;;;2.20;;
5349;SDS011;2697;42.144;24.794;2023-05-19T02:30:19;2.83;;;2.40;;
5349;SDS011;2697;42.144;24.794;2023-05-19T02:32:44;3.70;;;2.50;;
5349;SDS011;2697;42.144;24.794;2023-05-19T02:35:10;8.03;;;3.00;;
5349;SDS011;2697;42.144;24.794;2023-05-19T02:37:36;2.50;;;2.30;;
5349;SDS011;2697;42.144;24.794;2023-05-19T02:40:02;6.00;;;2.57;;
5349;SDS011;2697;42.144;24.794;2023-05-19T02:42:28;4.10;;;2.10;;
5349;SDS011;2697;42.144;24.794;2023-05-19T02:44:53;4.50;;;2.80;;
5349;SDS011;2697;42.144;24.794;2023-05-19T02:47:19;5.00;;;2.70;;
5349;SDS011;2697;42.144;24.794;2023-05-19T02:49:44;4.90;;;2.30;;
5349;SDS011;2697;42.144;24.794;2023-05-19T02:52:10;3.80;;;2.97;;
5349;SDS011;2697;42.144;24.794;2023-05-19T02:54:36;6.33;;;2.40;;
5349;SDS011;2697;42.144;24.794;2023-05-19T02:57:01;3.00;;;2.23;;
5349;SDS011;2697;42.144;24.794;2023-05-19T02:59:27;9.57;;;2.77;;
5349;SDS011;2697;42.144;24.794;2023-05-19T03:01:59;5.13;;;2.53;;
5349;SDS011;2697;42.144;24.794;2023-05-19T03:04:26;3.80;;;2.70;;
5349;SDS011;2697;42.144;24.794;2023-05-19T03:06:52;6.00;;;2.37;;
5349;SDS011;2697;42.144;24.794;2023-05-19T03:09:18;6.83;;;2.63;;
5349;SDS011;2697;42.144;24.794;2023-05-19T03:11:44;3.00;;;2.20;;
5349;SDS011;2697;42.144;24.794;2023-05-19T03:14:09;4.37;;;2.67;;
5349;SDS011;2697;42.144;24.794;2023-05-19T03:16:35;2.70;;;2.50;;
5349;SDS011;2697;42.144;24.794;2023-05-19T03:19:01;8.43;;;2.60;;
5349;SDS011;2697;42.144;24.794;2023-05-19T03:21:27;6.03;;;3.07;;
5349;SDS011;2697;42.144;24.794;2023-05-19T03:23:52;4.10;;;2.77;;
5349;SDS011;2697;42.144;24.794;2023-05-19T03:26:18;5.47;;;2.43;;
5349;SDS011;2697;42.144;24.794;2023-05-19T03:28:44;5.00;;;2.60;;
5349;SDS011;2697;42.144;24.794;2023-05-19T03:31:09;7.30;;;2.80;;
5349;SDS011;2697;42.144;24.794;2023-05-19T03:33:35;11.30;;;3.40;;
5349;SDS011;2697;42.144;24.794;2023-05-19T03:36:00;5.97;;;2.60;;
5349;SDS011;2697;42.144;24.794;2023-05-19T03:38:25;5.27;;;3.33;;
5349;SDS011;2697;42.144;24.794;2023-05-19T03:40:51;8.70;;;2.63;;
5349;SDS011;2697;42.144;24.794;2023-05-19T03:43:17;10.87;;;2.83;;
5349;SDS011;2697;42.144;24.794;2023-05-19T03:45:42;5.50;;;2.40;;
5349;SDS011;2697;42.144;24.794;2023-05-19T03:48:08;3.43;;;2.67;;
5349;SDS011;2697;42.144;24.794;2023-05-19T03:50:33;3.47;;;2.37;;
5349;SDS011;2697;42.144;24.794;2023-05-19T03:52:59;3.07;;;2.30;;
5349;SDS011;2697;42.144;24.794;2023-05-19T03:55:24;9.90;;;3.37;;
5349;SDS011;2697;42.144;24.794;2023-05-19T03:57:50;10.23;;;3.53;;
5349;SDS011;2697;42.144;24.794;2023-05-19T04:00:18;4.00;;;2.53;;
5349;SDS011;2697;42.144;24.794;2023-05-19T04:02:44;11.30;;;2.70;;
5349;SDS011;2697;42.144;24.794;2023-05-19T04:05:09;11.00;;;2.60;;
5349;SDS011;2697;42.144;24.794;2023-05-19T04:07:35;4.30;;;2.70;;
5349;SDS011;2697;42.144;24.794;2023-05-19T04:10:02;8.10;;;3.47;;
5349;SDS011;2697;42.144;24.794;2023-05-19T04:12:28;6.23;;;2.90;;
5349;SDS011;2697;42.144;24.794;2023-05-19T04:14:54;5.93;;;3.10;;
5349;SDS011;2697;42.144;24.794;2023-05-19T04:17:19;3.43;;;2.60;;
5349;SDS011;2697;42.144;24.794;2023-05-19T04:19:45;3.80;;;3.00;;
5349;SDS011;2697;42.144;24.794;2023-05-19T04:22:11;7.00;;;2.90;;
5349;SDS011;2697;42.144;24.794;2023-05-19T04:24:36;14.83;;;3.00;;
5349;SDS011;2697;42.144;24.794;2023-05-19T04:27:01;9.27;;;3.60;;
5349;SDS011;2697;42.144;24.794;2023-05-19T04:29:28;6.37;;;2.80;;
5349;SDS011;2697;42.144;24.794;2023-05-19T04:31:54;12.33;;;3.60;;
5349;SDS011;2697;42.144;24.794;2023-05-19T04:34:21;11.33;;;4.27;;
5349;SDS011;2697;42.144;24.794;2023-05-19T04:36:46;5.83;;;3.03;;
5349;SDS011;2697;42.144;24.794;2023-05-19T04:39:12;6.63;;;2.80;;
5349;SDS011;2697;42.144;24.794;2023-05-19T04:41:38;4.00;;;2.83;;
5349;SDS011;2697;42.144;24.794;2023-05-19T04:44:04;7.60;;;3.60;;
5349;SDS011;2697;42.144;24.794;2023-05-19T04:46:31;6.30;;;3.10;;
5349;SDS011;2697;42.144;24.794;2023-05-19T04:48:57;6.00;;;3.07;;
5349;SDS011;2697;42.144;24.794;2023-05-19T04:51:25;7.73;;;3.70;;
5349;SDS011;2697;42.144;24.794;2023-05-19T04:53:55;27.43;;;3.07;;
5349;SDS011;2697;42.144;24.794;2023-05-19T04:56:23;6.10;;;3.00;;
5349;SDS011;2697;42.144;24.794;2023-05-19T04:58:49;5.47;;;3.20;;
5349;SDS011;2697;42.144;24.794;2023-05-19T05:01:14;5.07;;;3.20;;
5349;SDS011;2697;42.144;24.794;2023-05-19T05:03:40;8.80;;;3.33;;
5349;SDS011;2697;42.144;24.794;2023-05-19T05:06:06;6.37;;;4.07;;
5349;SDS011;2697;42.144;24.794;2023-05-19T05:08:31;8.13;;;4.63;;
5349;SDS011;2697;42.144;24.794;2023-05-19T05:10:57;13.70;;;3.07;;
5349;SDS011;2697;42.144;24.794;2023-05-19T05:13:23;4.50;;;3.00;;
5349;SDS011;2697;42.144;24.794;2023-05-19T05:15:49;11.70;;;3.17;;
5349;SDS011;2697;42.144;24.794;2023-05-19T05:18:16;6.80;;;2.73;;
5349;SDS011;2697;42.144;24.794;2023-05-19T05:20:43;5.17;;;3.97;;
5349;SDS011;2697;42.144;24.794;2023-05-19T05:23:09;7.80;;;2.83;;
5349;SDS011;2697;42.144;24.794;2023-05-19T05:25:42;5.00;;;3.10;;
5349;SDS011;2697;42.144;24.794;2023-05-19T05:28:08;8.03;;;3.77;;
5349;SDS011;2697;42.144;24.794;2023-05-19T05:30:34;7.80;;;2.80;;
5349;SDS011;2697;42.144;24.794;2023-05-19T05:32:59;14.37;;;3.67;;
5349;SDS011;2697;42.144;24.794;2023-05-19T05:35:26;7.40;;;3.80;;
5349;SDS011;2697;42.144;24.794;2023-05-19T05:37:52;10.60;;;3.97;;
5349;SDS011;2697;42.144;24.794;2023-05-19T05:40:17;9.30;;;3.33;;
5349;SDS011;2697;42.144;24.794;2023-05-19T05:42:43;6.53;;;4.30;;
5349;SDS011;2697;42.144;24.794;2023-05-19T05:45:08;14.10;;;3.97;;
5349;SDS011;2697;42.144;24.794;2023-05-19T05:47:34;9.20;;;4.13;;
5349;SDS011;2697;42.144;24.794;2023-05-19T05:50:07;4.70;;;3.30;;
5349;SDS011;2697;42.144;24.794;2023-05-19T05:52:34;6.00;;;3.73;;
5349;SDS011;2697;42.144;24.794;2023-05-19T05:55:01;12.00;;;3.83;;
5349;SDS011;2697;42.144;24.794;2023-05-19T05:57:27;11.53;;;3.87;;
5349;SDS011;2697;42.144;24.794;2023-05-19T05:59:54;10.23;;;3.43;;
5349;SDS011;2697;42.144;24.794;2023-05-19T06:02:20;12.07;;;3.90;;
5349;SDS011;2697;42.144;24.794;2023-05-19T06:04:46;8.10;;;3.93;;
5349;SDS011;2697;42.144;24.794;2023-05-19T06:07:11;19.33;;;3.93;;
5349;SDS011;2697;42.144;24.794;2023-05-19T06:09:36;8.40;;;3.90;;
5349;SDS011;2697;42.144;24.794;2023-05-19T06:12:02;8.10;;;5.20;;
5349;SDS011;2697;42.144;24.794;2023-05-19T06:14:27;6.93;;;4.40;;
5349;SDS011;2697;42.144;24.794;2023-05-19T06:16:53;6.07;;;4.40;;
5349;SDS011;2697;42.144;24.794;2023-05-19T06:19:18;12.50;;;6.53;;
5349;SDS011;2697;42.144;24.794;2023-05-19T06:21:44;15.67;;;4.37;;
5349;SDS011;2697;42.144;24.794;2023-05-19T06:24:09;13.30;;;4.13;;
5349;SDS011;2697;42.144;24.794;2023-05-19T06:26:35;10.73;;;3.60;;
5349;SDS011;2697;42.144;24.794;2023-05-19T06:29:00;7.10;;;4.00;;
5349;SDS011;2697;42.144;24.794;2023-05-19T06:31:27;6.17;;;4.20;;
5349;SDS011;2697;42.144;24.794;2023-05-19T06:33:52;8.67;;;4.20;;
5349;SDS011;2697;42.144;24.794;2023-05-19T06:36:17;11.33;;;5.03;;
5349;SDS011;2697;42.144;24.794;2023-05-19T06:38:43;12.70;;;5.23;;
5349;SDS011;2697;42.144;24.794;2023-05-19T06:41:08;8.57;;;5.20;;
5349;SDS011;2697;42.144;24.794;2023-05-19T06:43:34;11.07;;;5.33;;
5349;SDS011;2697;42.144;24.794;2023-05-19T06:45:59;11.70;;;5.90;;
5349;SDS011;2697;42.144;24.794;2023-05-19T06:48:24;17.30;;;4.90;;
5349;SDS011;2697;42.144;24.794;2023-05-19T06:50:50;8.43;;;5.43;;
5349;SDS011;2697;42.144;24.794;2023-05-19T06:53:16;9.10;;;4.73;;
5349;SDS011;2697;42.144;24.794;2023-05-19T06:55:42;14.73;;;5.73;;
5349;SDS011;2697;42.144;24.794;2023-05-19T06:58:08;12.70;;;5.40;;
5349;SDS011;2697;42.144;24.794;2023-05-19T07:00:33;15.57;;;4.60;;
5349;SDS011;2697;42.144;24.794;2023-05-19T07:02:58;17.80;;;6.10;;
5349;SDS011;2697;42.144;24.794;2023-05-19T07:05:24;8.60;;;5.07;;
5349;SDS011;2697;42.144;24.794;2023-05-19T07:07:49;10.17;;;4.70;;
5349;SDS011;2697;42.144;24.794;2023-05-19T07:10:14;9.47;;;4.70;;
5349;SDS011;2697;42.144;24.794;2023-05-19T07:12:40;13.23;;;6.00;;
5349;SDS011;2697;42.144;24.794;2023-05-19T07:15:05;12.93;;;5.83;;
5349;SDS011;2697;42.144;24.794;2023-05-19T07:17:31;8.10;;;4.50;;
5349;SDS011;2697;42.144;24.794;2023-05-19T07:19:56;10.63;;;5.00;;
5349;SDS011;2697;42.144;24.794;2023-05-19T07:22:22;16.33;;;5.87;;
5349;SDS011;2697;42.144;24.794;2023-05-19T07:24:48;15.23;;;5.40;;
5349;SDS011;2697;42.144;24.794;2023-05-19T07:27:13;5.47;;;3.97;;
5349;SDS011;2697;42.144;24.794;2023-05-19T07:29:39;13.70;;;4.93;;
5349;SDS011;2697;42.144;24.794;2023-05-19T07:32:04;9.13;;;5.37;;
5349;SDS011;2697;42.144;24.794;2023-05-19T07:34:30;7.07;;;5.30;;
5349;SDS011;2697;42.144;24.794;2023-05-19T07:36:55;8.90;;;5.10;;
5349;SDS011;2697;42.144;24.794;2023-05-19T07:39:21;12.30;;;5.40;;
5349;SDS011;2697;42.144;24.794;2023-05-19T07:41:47;7.63;;;5.20;;
5349;SDS011;2697;42.144;24.794;2023-05-19T07:44:17;12.30;;;6.27;;
5349;SDS011;2697;42.144;24.794;2023-05-19T07:46:42;17.47;;;6.10;;
5349;SDS011;2697;42.144;24.794;2023-05-19T07:49:08;11.87;;;6.03;;
5349;SDS011;2697;42.144;24.794;2023-05-19T07:51:33;16.80;;;6.53;;
5349;SDS011;2697;42.144;24.794;2023-05-19T07:53:58;10.93;;;6.03;;
5349;SDS011;2697;42.144;24.794;2023-05-19T07:56:24;11.03;;;6.13;;
5349;SDS011;2697;42.144;24.794;2023-05-19T07:58:49;8.13;;;6.07;;
5349;SDS011;2697;42.144;24.794;2023-05-19T08:01:16;18.77;;;7.10;;
5349;SDS011;2697;42.144;24.794;2023-05-19T08:03:42;11.70;;;6.63;;
5349;SDS011;2697;42.144;24.794;2023-05-19T08:06:07;10.70;;;6.60;;
5349;SDS011;2697;42.144;24.794;2023-05-19T08:08:33;9.30;;;6.33;;
5349;SDS011;2697;42.144;24.794;2023-05-19T08:11:04;7.97;;;5.33;;
5349;SDS011;2697;42.144;24.794;2023-05-19T08:13:30;11.07;;;6.77;;
5349;SDS011;2697;42.144;24.794;2023-05-19T08:15:56;19.27;;;6.03;;
5349;SDS011;2697;42.144;24.794;2023-05-19T08:18:26;16.03;;;5.90;;
5349;SDS011;2697;42.144;24.794;2023-05-19T08:20:52;9.07;;;5.70;;
5349;SDS011;2697;42.144;24.794;2023-05-19T08:23:17;13.63;;;6.73;;
5349;SDS011;2697;42.144;24.794;2023-05-19T08:25:43;11.93;;;6.47;;
5349;SDS011;2697;42.144;24.794;2023-05-19T08:28:09;21.30;;;6.63;;
5349;SDS011;2697;42.144;24.794;2023-05-19T08:30:34;10.20;;;5.90;;
5349;SDS011;2697;42.144;24.794;2023-05-19T08:33:00;11.10;;;5.90;;
5349;SDS011;2697;42.144;24.794;2023-05-19T08:35:26;10.27;;;6.07;;
5349;SDS011;2697;42.144;24.794;2023-05-19T08:37:51;17.03;;;5.97;;
5349;SDS011;2697;42.144;24.794;2023-05-19T08:40:17;14.43;;;7.30;;
5349;SDS011;2697;42.144;24.794;2023-05-19T08:42:43;25.37;;;6.90;;
5349;SDS011;2697;42.144;24.794;2023-05-19T08:45:09;10.90;;;6.60;;
5349;SDS011;2697;42.144;24.794;2023-05-19T08:47:35;18.13;;;7.80;;
5349;SDS011;2697;42.144;24.794;2023-05-19T08:50:02;17.63;;;6.50;;
5349;SDS011;2697;42.144;24.794;2023-05-19T08:52:34;10.40;;;6.00;;
5349;SDS011;2697;42.144;24.794;2023-05-19T08:58:06;10.83;;;6.80;;
5349;SDS011;2697;42.144;24.794;2023-05-19T09:00:32;15.97;;;7.03;;
5349;SDS011;2697;42.144;24.794;2023-05-19T09:02:58;14.70;;;7.43;;
5349;SDS011;2697;42.144;24.794;2023-05-19T09:05:24;14.67;;;7.53;;
5349;SDS011;2697;42.144;24.794;2023-05-19T09:07:51;11.93;;;7.23;;
5349;SDS011;2697;42.144;24.794;2023-05-19T09:10:17;17.60;;;7.37;;
5349;SDS011;2697;42.144;24.794;2023-05-19T09:12:43;11.17;;;7.40;;
5349;SDS011;2697;42.144;24.794;2023-05-19T09:15:10;25.50;;;8.70;;
5349;SDS011;2697;42.144;24.794;2023-05-19T09:17:37;17.63;;;7.93;;
5349;SDS011;2697;42.144;24.794;2023-05-19T09:20:04;11.07;;;6.93;;
5349;SDS011;2697;42.144;24.794;2023-05-19T09:22:44;13.37;;;7.00;;
5349;SDS011;2697;42.144;24.794;2023-05-19T09:25:44;14.13;;;7.53;;
5349;SDS011;2697;42.144;24.794;2023-05-19T09:28:10;16.43;;;7.60;;
5349;SDS011;2697;42.144;24.794;2023-05-19T09:30:35;14.40;;;7.37;;
5349;SDS011;2697;42.144;24.794;2023-05-19T09:33:01;13.90;;;7.80;;
5349;SDS011;2697;42.144;24.794;2023-05-19T09:35:28;11.90;;;8.17;;
5349;SDS011;2697;42.144;24.794;2023-05-19T09:37:53;20.00;;;8.37;;
5349;SDS011;2697;42.144;24.794;2023-05-19T09:40:19;17.00;;;8.30;;
5349;SDS011;2697;42.144;24.794;2023-05-19T09:42:45;15.80;;;7.30;;
5349;SDS011;2697;42.144;24.794;2023-05-19T09:45:12;14.00;;;8.67;;
5349;SDS011;2697;42.144;24.794;2023-05-19T09:47:38;9.60;;;7.00;;
5349;SDS011;2697;42.144;24.794;2023-05-19T09:50:05;17.50;;;7.73;;
5349;SDS011;2697;42.144;24.794;2023-05-19T09:52:36;12.97;;;7.80;;
5349;SDS011;2697;42.144;24.794;2023-05-19T09:55:02;13.90;;;8.00;;
5349;SDS011;2697;42.144;24.794;2023-05-19T09:57:33;13.50;;;9.43;;
5349;SDS011;2697;42.144;24.794;2023-05-19T10:00:04;18.70;;;9.30;;
5349;SDS011;2697;42.144;24.794;2023-05-19T10:02:41;36.87;;;8.87;;
5349;SDS011;2697;42.144;24.794;2023-05-19T10:05:12;10.50;;;7.57;;
5349;SDS011;2697;42.144;24.794;2023-05-19T10:07:41;16.00;;;8.37;;
5349;SDS011;2697;42.144;24.794;2023-05-19T10:10:08;17.80;;;8.43;;
5349;SDS011;2697;42.144;24.794;2023-05-19T10:12:37;14.77;;;8.70;;
5349;SDS011;2697;42.144;24.794;2023-05-19T10:15:05;15.40;;;7.70;;
5349;SDS011;2697;42.144;24.794;2023-05-19T10:17:35;17.10;;;7.50;;
5349;SDS011;2697;42.144;24.794;2023-05-19T10:20:02;16.50;;;8.33;;
5349;SDS011;2697;42.144;24.794;2023-05-19T10:22:30;16.30;;;8.07;;
5349;SDS011;2697;42.144;24.794;2023-05-19T10:24:56;23.43;;;8.27;;
5349;SDS011;2697;42.144;24.794;2023-05-19T10:27:21;17.00;;;8.37;;
5349;SDS011;2697;42.144;24.794;2023-05-19T10:29:48;18.63;;;8.03;;
5349;SDS011;2697;42.144;24.794;2023-05-19T10:32:17;14.93;;;8.33;;
5349;SDS011;2697;42.144;24.794;2023-05-19T10:35:01;18.83;;;7.80;;
5349;SDS011;2697;42.144;24.794;2023-05-19T10:40:25;20.00;;;8.90;;
5349;SDS011;2697;42.144;24.794;2023-05-19T10:42:56;17.27;;;7.60;;
5349;SDS011;2697;42.144;24.794;2023-05-19T10:45:44;23.00;;;9.93;;
5349;SDS011;2697;42.144;24.794;2023-05-19T10:48:15;18.47;;;9.10;;
5349;SDS011;2697;42.144;24.794;2023-05-19T10:50:44;26.27;;;8.13;;
5349;SDS011;2697;42.144;24.794;2023-05-19T10:53:19;17.70;;;8.17;;
5349;SDS011;2697;42.144;24.794;2023-05-19T10:55:50;10.23;;;6.60;;
5349;SDS011;2697;42.144;24.794;2023-05-19T11:01:13;12.50;;;8.80;;
5349;SDS011;2697;42.144;24.794;2023-05-19T11:03:43;18.93;;;8.33;;
5349;SDS011;2697;42.144;24.794;2023-05-19T11:06:30;28.70;;;8.80;;
5349;SDS011;2697;42.144;24.794;2023-05-19T11:11:46;12.97;;;6.63;;
5349;SDS011;2697;42.144;24.794;2023-05-19T11:14:20;17.07;;;7.10;;
5349;SDS011;2697;42.144;24.794;2023-05-19T11:16:47;17.53;;;6.80;;
5349;SDS011;2697;42.144;24.794;2023-05-19T11:19:28;14.63;;;6.27;;
5349;SDS011;2697;42.144;24.794;2023-05-19T11:21:54;8.77;;;6.63;;
5349;SDS011;2697;42.144;24.794;2023-05-19T11:24:54;15.20;;;7.20;;
5349;SDS011;2697;42.144;24.794;2023-05-19T11:29:48;11.10;;;6.67;;
5349;SDS011;2697;42.144;24.794;2023-05-19T11:32:15;12.37;;;6.80;;
5349;SDS011;2697;42.144;24.794;2023-05-19T11:34:42;11.00;;;6.17;;
5349;SDS011;2697;42.144;24.794;2023-05-19T11:37:08;13.20;;;7.07;;
5349;SDS011;2697;42.144;24.794;2023-05-19T11:39:34;46.77;;;7.87;;
5349;SDS011;2697;42.144;24.794;2023-05-19T11:42:00;11.30;;;6.10;;
5349;SDS011;2697;42.144;24.794;2023-05-19T11:44:25;18.13;;;7.23;;
5349;SDS011;2697;42.144;24.794;2023-05-19T11:46:50;20.43;;;6.87;;
5349;SDS011;2697;42.144;24.794;2023-05-19T11:49:16;13.23;;;6.40;;
5349;SDS011;2697;42.144;24.794;2023-05-19T11:51:42;12.30;;;6.50;;
5349;SDS011;2697;42.144;24.794;2023-05-19T11:54:11;16.57;;;6.33;;
5349;SDS011;2697;42.144;24.794;2023-05-19T11:56:40;15.80;;;6.67;;
5349;SDS011;2697;42.144;24.794;2023-05-19T11:59:07;26.83;;;6.00;;
5349;SDS011;2697;42.144;24.794;2023-05-19T12:01:33;22.80;;;6.73;;
5349;SDS011;2697;42.144;24.794;2023-05-19T12:03:59;14.73;;;6.50;;
5349;SDS011;2697;42.144;24.794;2023-05-19T12:06:25;14.47;;;7.53;;
5349;SDS011;2697;42.144;24.794;2023-05-19T12:08:51;29.67;;;7.10;;
5349;SDS011;2697;42.144;24.794;2023-05-19T12:11:18;20.33;;;6.70;;
5349;SDS011;2697;42.144;24.794;2023-05-19T12:13:44;14.33;;;7.20;;
5349;SDS011;2697;42.144;24.794;2023-05-19T12:16:09;10.10;;;6.80;;
5349;SDS011;2697;42.144;24.794;2023-05-19T12:18:35;11.30;;;7.43;;
5349;SDS011;2697;42.144;24.794;2023-05-19T12:21:02;19.50;;;6.83;;
5349;SDS011;2697;42.144;24.794;2023-05-19T12:23:28;10.73;;;7.27;;
5349;SDS011;2697;42.144;24.794;2023-05-19T12:25:57;17.23;;;6.80;;
5349;SDS011;2697;42.144;24.794;2023-05-19T12:28:23;18.70;;;7.47;;
5349;SDS011;2697;42.144;24.794;2023-05-19T12:30:49;14.07;;;7.53;;
5349;SDS011;2697;42.144;24.794;2023-05-19T12:33:19;10.23;;;6.50;;
5349;SDS011;2697;42.144;24.794;2023-05-19T12:35:47;13.73;;;7.00;;
5349;SDS011;2697;42.144;24.794;2023-05-19T12:38:14;13.37;;;6.43;;
5349;SDS011;2697;42.144;24.794;2023-05-19T12:40:40;9.50;;;6.30;;
5349;SDS011;2697;42.144;24.794;2023-05-19T12:43:07;9.97;;;6.73;;
5349;SDS011;2697;42.144;24.794;2023-05-19T12:45:36;21.83;;;7.50;;
5349;SDS011;2697;42.144;24.794;2023-05-19T12:48:13;10.47;;;6.27;;
5349;SDS011;2697;42.144;24.794;2023-05-19T12:50:40;20.53;;;6.93;;
5349;SDS011;2697;42.144;24.794;2023-05-19T12:53:08;9.63;;;6.33;;
5349;SDS011;2697;42.144;24.794;2023-05-19T12:55:41;14.90;;;7.30;;
5349;SDS011;2697;42.144;24.794;2023-05-19T12:58:08;11.33;;;6.67;;
5349;SDS011;2697;42.144;24.794;2023-05-19T13:00:44;45.93;;;7.77;;
5349;SDS011;2697;42.144;24.794;2023-05-19T13:05:40;25.33;;;8.17;;
5349;SDS011;2697;42.144;24.794;2023-05-19T13:08:08;14.60;;;6.00;;
5349;SDS011;2697;42.144;24.794;2023-05-19T13:10:35;12.30;;;7.33;;
5349;SDS011;2697;42.144;24.794;2023-05-19T13:13:01;9.10;;;6.47;;
5349;SDS011;2697;42.144;24.794;2023-05-19T13:15:28;31.60;;;7.67;;
5349;SDS011;2697;42.144;24.794;2023-05-19T13:17:59;12.97;;;7.20;;
5349;SDS011;2697;42.144;24.794;2023-05-19T13:20:26;15.93;;;6.33;;
5349;SDS011;2697;42.144;24.794;2023-05-19T13:22:51;10.40;;;6.37;;
5349;SDS011;2697;42.144;24.794;2023-05-19T13:25:17;10.83;;;6.37;;
5349;SDS011;2697;42.144;24.794;2023-05-19T13:27:43;9.50;;;6.30;;
5349;SDS011;2697;42.144;24.794;2023-05-19T13:30:12;8.37;;;6.50;;
5349;SDS011;2697;42.144;24.794;2023-05-19T13:32:38;13.57;;;5.97;;
5349;SDS011;2697;42.144;24.794;2023-05-19T13:35:03;12.20;;;6.70;;
5349;SDS011;2697;42.144;24.794;2023-05-19T13:37:29;10.27;;;6.10;;
5349;SDS011;2697;42.144;24.794;2023-05-19T13:39:55;25.60;;;9.10;;
5349;SDS011;2697;42.144;24.794;2023-05-19T13:42:21;11.23;;;7.23;;
5349;SDS011;2697;42.144;24.794;2023-05-19T13:44:47;18.97;;;7.10;;
5349;SDS011;2697;42.144;24.794;2023-05-19T13:47:12;19.73;;;7.10;;
5349;SDS011;2697;42.144;24.794;2023-05-19T13:49:38;13.53;;;7.07;;
5349;SDS011;2697;42.144;24.794;2023-05-19T13:52:05;14.00;;;7.40;;
5349;SDS011;2697;42.144;24.794;2023-05-19T13:54:31;11.40;;;7.17;;
5349;SDS011;2697;42.144;24.794;2023-05-19T13:56:57;13.90;;;7.67;;
5349;SDS011;2697;42.144;24.794;2023-05-19T13:59:24;20.97;;;6.87;;
5349;SDS011;2697;42.144;24.794;2023-05-19T14:01:49;12.50;;;6.77;;
5349;SDS011;2697;42.144;24.794;2023-05-19T14:04:16;17.27;;;7.50;;
5349;SDS011;2697;42.144;24.794;2023-05-19T14:06:42;14.37;;;7.83;;
5349;SDS011;2697;42.144;24.794;2023-05-19T14:09:07;22.93;;;6.93;;
5349;SDS011;2697;42.144;24.794;2023-05-19T14:11:33;10.70;;;5.77;;
5349;SDS011;2697;42.144;24.794;2023-05-19T14:13:58;15.47;;;5.00;;
5349;SDS011;2697;42.144;24.794;2023-05-19T14:16:24;13.43;;;5.90;;
5349;SDS011;2697;42.144;24.794;2023-05-19T14:18:53;13.60;;;5.73;;
5349;SDS011;2697;42.144;24.794;2023-05-19T14:21:18;23.97;;;5.60;;
5349;SDS011;2697;42.144;24.794;2023-05-19T14:23:44;21.33;;;6.23;;
5349;SDS011;2697;42.144;24.794;2023-05-19T14:26:09;8.90;;;4.80;;
5349;SDS011;2697;42.144;24.794;2023-05-19T14:28:34;11.67;;;5.00;;
5349;SDS011;2697;42.144;24.794;2023-05-19T14:31:00;24.43;;;4.37;;
5349;SDS011;2697;42.144;24.794;2023-05-19T14:33:25;15.03;;;4.33;;
5349;SDS011;2697;42.144;24.794;2023-05-19T14:35:51;6.57;;;3.60;;
5349;SDS011;2697;42.144;24.794;2023-05-19T14:38:17;9.40;;;5.13;;
5349;SDS011;2697;42.144;24.794;2023-05-19T14:40:43;11.80;;;4.20;;
5349;SDS011;2697;42.144;24.794;2023-05-19T14:43:09;20.07;;;5.90;;
5349;SDS011;2697;42.144;24.794;2023-05-19T14:45:34;12.37;;;5.33;;
5349;SDS011;2697;42.144;24.794;2023-05-19T14:48:00;9.83;;;5.10;;
5349;SDS011;2697;42.144;24.794;2023-05-19T14:50:26;14.93;;;6.47;;
5349;SDS011;2697;42.144;24.794;2023-05-19T14:52:52;12.40;;;5.50;;
5349;SDS011;2697;42.144;24.794;2023-05-19T14:55:18;19.57;;;6.20;;
5349;SDS011;2697;42.144;24.794;2023-05-19T14:57:43;15.83;;;7.13;;
5349;SDS011;2697;42.144;24.794;2023-05-19T15:00:08;15.60;;;7.20;;
5349;SDS011;2697;42.144;24.794;2023-05-19T15:02:34;12.07;;;6.83;;
5349;SDS011;2697;42.144;24.794;2023-05-19T15:05:00;19.93;;;7.60;;
5349;SDS011;2697;42.144;24.794;2023-05-19T15:07:26;22.10;;;9.70;;
5349;SDS011;2697;42.144;24.794;2023-05-19T15:09:51;15.83;;;7.43;;
5349;SDS011;2697;42.144;24.794;2023-05-19T15:12:17;14.67;;;7.20;;
5349;SDS011;2697;42.144;24.794;2023-05-19T15:14:42;13.43;;;7.80;;
5349;SDS011;2697;42.144;24.794;2023-05-19T15:17:08;16.67;;;8.40;;
5349;SDS011;2697;42.144;24.794;2023-05-19T15:19:33;33.47;;;8.73;;